Time;durP1;ratioP1;P1;durP2;ratioP2;P2;SDS_P1;SDS_P2;PMS_P1;PMS_P2;Temp;Humidity;BMP_temperature;BMP_pressure;BME280_temperature;BME280_humidity;BME280_pressure;Samples;Min_cycle;Max_cycle;Signal;HPM_P1;HPM_P2
2023/05/02 00:00:15;;;;;;;8.52;5.45;;;17.30;54.30;;;;;;5054029;28;20025;-74
2023/05/02 00:02:41;;;;;;;6.03;5.40;;;17.30;54.40;;;;;;5052645;28;20078;-73
2023/05/02 00:05:07;;;;;;;7.47;5.97;;;17.20;54.00;;;;;;5053838;28;20024;-73
2023/05/02 00:07:33;;;;;;;6.15;4.95;;;17.20;54.60;;;;;;5053850;28;20021;-76
2023/05/02 00:10:01;;;;;;;7.35;5.80;;;17.20;54.10;;;;;;5054209;28;20159;-74
2023/05/02 00:12:27;;;;;;;7.28;5.20;;;17.20;54.10;;;;;;5052444;28;20025;-73
2023/05/02 00:14:53;;;;;;;7.78;6.35;;;17.20;54.20;;;;;;5053764;28;20047;-75
2023/05/02 00:17:19;;;;;;;7.25;6.05;;;17.20;54.60;;;;;;5052403;28;20385;-74
2023/05/02 00:19:46;;;;;;;6.32;5.70;;;17.20;54.90;;;;;;5053431;28;20118;-74
2023/05/02 00:22:12;;;;;;;6.75;5.60;;;17.20;54.30;;;;;;5052606;28;20040;-74
2023/05/02 00:24:37;;;;;;;9.10;6.78;;;17.20;54.20;;;;;;5053633;28;20522;-74
2023/05/02 00:27:03;;;;;;;7.60;5.63;;;17.30;54.70;;;;;;5053519;28;20025;-74
2023/05/02 00:29:29;;;;;;;6.93;5.50;;;17.30;54.50;;;;;;5053268;28;20025;-74
2023/05/02 00:31:56;;;;;;;12.43;5.97;;;17.30;54.40;;;;;;5052169;28;20378;-73
2023/05/02 00:34:31;;;;;;;6.28;5.07;;;17.40;54.50;;;;;;5065084;28;20021;-74
2023/05/02 00:36:57;;;;;;;7.18;5.03;;;17.40;54.30;;;;;;5072205;28;20367;-74
2023/05/02 00:39:23;;;;;;;6.78;5.45;;;17.50;54.30;;;;;;5072711;28;20381;-74
2023/05/02 00:41:55;;;;;;;8.45;6.20;;;17.50;54.20;;;;;;5072120;28;20024;-73
2023/05/02 00:44:21;;;;;;;10.48;6.85;;;17.50;54.80;;;;;;5073404;28;20046;-74
2023/05/02 00:46:47;;;;;;;9.63;7.82;;;17.50;55.20;;;;;;5072073;28;20016;-74
2023/05/02 00:49:13;;;;;;;10.20;8.55;;;17.50;54.90;;;;;;5072077;28;20016;-74
2023/05/02 00:51:39;;;;;;;7.88;6.68;;;17.50;54.80;;;;;;5073179;28;20021;-74
2023/05/02 00:54:05;;;;;;;8.50;6.53;;;17.50;54.20;;;;;;5073266;28;20442;-73
2023/05/02 00:56:31;;;;;;;7.55;6.30;;;17.60;54.20;;;;;;5073203;28;20032;-74
2023/05/02 00:58:57;;;;;;;8.48;5.97;;;17.60;54.90;;;;;;5061258;28;20082;-73
2023/05/02 01:01:40;;;;;;;10.50;8.20;;;17.60;54.20;;;;;;5068466;28;20028;-74
2023/05/02 01:04:39;;;;;;;8.43;6.63;;;17.60;54.90;;;;;;5053093;28;20028;-74
2023/05/02 01:07:23;;;;;;;9.90;6.90;;;17.70;54.70;;;;;;5053056;28;20100;-74
2023/05/02 01:10:18;;;;;;;8.30;6.78;;;17.70;54.40;;;;;;5052980;28;20025;-74
2023/05/02 01:12:51;;;;;;;12.80;7.60;;;17.70;54.30;;;;;;5043606;28;20513;-74
2023/05/02 01:15:21;;;;;;;8.48;7.22;;;17.70;54.80;;;;;;5052991;28;20112;-74
2023/05/02 01:17:49;;;;;;;7.72;6.78;;;17.60;55.00;;;;;;5052925;28;20100;-75
2023/05/02 01:20:19;;;;;;;7.90;7.10;;;17.60;54.70;;;;;;5051437;28;20033;-74
2023/05/02 01:22:46;;;;;;;10.00;6.93;;;17.60;54.70;;;;;;5052773;28;20025;-74
2023/05/02 01:25:36;;;;;;;10.00;8.00;;;17.50;54.60;;;;;;5052651;28;20064;-73
2023/05/02 01:28:11;;;;;;;9.93;8.27;;;17.50;54.70;;;;;;5052012;28;20046;-74
2023/05/02 01:30:40;;;;;;;10.88;8.73;;;17.50;55.30;;;;;;5052663;28;20021;-74
2023/05/02 01:33:10;;;;;;;11.18;8.45;;;17.40;55.60;;;;;;5053006;28;20021;-73
2023/05/02 01:35:37;;;;;;;9.32;7.68;;;17.40;56.10;;;;;;5053089;28;20021;-74
2023/05/02 01:38:05;;;;;;;10.65;8.45;;;17.40;55.70;;;;;;5052747;28;20053;-73
2023/05/02 01:40:33;;;;;;;11.25;8.43;;;17.40;56.20;;;;;;5052719;28;20021;-74
2023/05/02 01:43:03;;;;;;;11.32;7.82;;;17.40;56.20;;;;;;5052865;28;20044;-74
2023/05/02 01:45:30;;;;;;;9.70;7.20;;;17.40;56.30;;;;;;5052755;28;20047;-74
2023/05/02 01:47:57;;;;;;;9.57;7.38;;;17.40;56.00;;;;;;5052706;28;20092;-73
2023/05/02 01:50:25;;;;;;;9.27;7.47;;;17.50;56.10;;;;;;5065451;28;20046;-73
2023/05/02 01:52:53;;;;;;;9.57;8.10;;;17.50;56.00;;;;;;5075025;28;20496;-74
2023/05/02 01:55:20;;;;;;;9.52;7.63;;;17.60;56.30;;;;;;5076344;28;20025;-74
2023/05/02 01:57:49;;;;;;;8.73;7.75;;;17.60;56.50;;;;;;5072996;28;20043;-74
2023/05/02 02:00:17;;;;;;;11.23;8.02;;;17.60;56.40;;;;;;5074771;28;20067;-73
2023/05/02 02:02:44;;;;;;;12.93;8.15;;;17.60;56.10;;;;;;5076163;28;20017;-74
2023/05/02 02:05:11;;;;;;;13.05;7.82;;;17.60;56.60;;;;;;5076136;28;20023;-75
2023/05/02 02:07:37;;;;;;;12.43;7.60;;;17.60;56.40;;;;;;5074748;28;20436;-73
2023/05/02 02:10:04;;;;;;;11.00;8.13;;;17.60;56.30;;;;;;5076010;28;20028;-73
2023/05/02 02:12:41;;;;;;;11.13;7.82;;;17.60;56.60;;;;;;5075960;28;20021;-74
2023/05/02 02:15:33;;;;;;;10.10;7.72;;;17.60;56.60;;;;;;5075958;28;20046;-74
2023/05/02 02:18:10;;;;;;;10.10;7.82;;;17.60;56.60;;;;;;5073242;28;20036;-74
2023/05/02 02:20:39;;;;;;;12.48;9.68;;;17.60;56.70;;;;;;5075692;28;20420;-73
2023/05/02 02:23:07;;;;;;;8.50;7.20;;;17.60;56.90;;;;;;5074465;28;20107;-73
2023/05/02 02:25:34;;;;;;;8.95;6.90;;;17.60;56.80;;;;;;5075533;28;20123;-74
2023/05/02 02:28:00;;;;;;;10.63;8.05;;;17.60;56.70;;;;;;5073897;28;20050;-74
2023/05/02 02:30:26;;;;;;;8.10;6.68;;;17.60;56.70;;;;;;5075629;28;20032;-73
2023/05/02 02:32:52;;;;;;;8.57;7.15;;;17.60;56.60;;;;;;5075567;28;20493;-74
2023/05/02 02:35:18;;;;;;;8.82;7.35;;;17.60;56.60;;;;;;5075556;28;20024;-73
2023/05/02 02:38:08;;;;;;;8.73;6.80;;;17.60;56.80;;;;;;5074198;28;20025;-73
2023/05/02 02:40:56;;;;;;;8.13;6.90;;;17.60;56.80;;;;;;5074115;28;20385;-73
2023/05/02 02:43:45;;;;;;;9.70;6.18;;;17.60;57.00;;;;;;5075366;28;20470;-74
2023/05/02 02:46:15;;;;;;;9.75;7.35;;;17.60;56.60;;;;;;5075594;28;20016;-74
2023/05/02 02:48:46;;;;;;;9.55;7.13;;;17.60;57.00;;;;;;5075191;28;20020;-74
2023/05/02 02:51:18;;;;;;;9.27;6.63;;;17.60;57.00;;;;;;5075250;28;20082;-74
2023/05/02 02:54:08;;;;;;;7.38;6.28;;;17.60;56.90;;;;;;5073990;28;20062;-74
2023/05/02 02:56:41;;;;;;;8.70;5.00;;;17.60;57.00;;;;;;5068842;28;20040;-74
2023/05/02 02:59:25;;;;;;;8.68;6.78;;;17.60;56.90;;;;;;5053785;28;20021;-74
2023/05/02 03:02:08;;;;;;;5.13;4.63;;;17.60;56.80;;;;;;5053259;28;20025;-74
2023/05/02 03:04:37;;;;;;;5.30;4.20;;;17.60;56.50;;;;;;5053929;28;20386;-74
2023/05/02 03:07:03;;;;;;;4.32;3.88;;;17.70;56.50;;;;;;5054912;28;20067;-74
2023/05/02 03:09:49;;;;;;;3.92;3.63;;;17.70;56.30;;;;;;5054724;28;20021;-74
2023/05/02 03:12:15;;;;;;;3.83;3.42;;;17.60;56.20;;;;;;5054960;28;20466;-74
2023/05/02 03:14:42;;;;;;;4.18;3.00;;;17.70;56.10;;;;;;5053430;28;20039;-74
2023/05/02 03:17:08;;;;;;;3.78;3.03;;;17.70;56.10;;;;;;5054665;28;20017;-75
2023/05/02 03:19:34;;;;;;;3.83;2.55;;;17.70;56.00;;;;;;5054425;28;20083;-74
2023/05/02 03:22:00;;;;;;;2.30;2.10;;;17.70;55.90;;;;;;5054487;28;20020;-74
2023/05/02 03:24:28;;;;;;;3.92;3.08;;;17.80;55.90;;;;;;5052930;28;20554;-75
2023/05/02 03:26:55;;;;;;;2.97;2.67;;;17.80;55.90;;;;;;5052968;28;20017;-73
2023/05/02 03:29:22;;;;;;;2.58;2.38;;;17.80;55.90;;;;;;5054240;28;20057;-73
2023/05/02 03:31:47;;;;;;;3.60;2.25;;;17.80;55.80;;;;;;5054281;28;20036;-74
2023/05/02 03:34:13;;;;;;;2.67;2.47;;;17.80;55.80;;;;;;5052986;28;20029;-74
2023/05/02 03:36:39;;;;;;;3.08;2.78;;;17.80;55.80;;;;;;5052853;28;20025;-74
2023/05/02 03:39:05;;;;;;;3.25;2.75;;;17.80;55.90;;;;;;5052909;28;20367;-75
2023/05/02 03:41:31;;;;;;;2.92;2.40;;;17.80;55.70;;;;;;5054042;28;20112;-74
2023/05/02 03:43:57;;;;;;;3.55;2.72;;;17.80;55.70;;;;;;5052998;28;20072;-73
2023/05/02 03:46:24;;;;;;;2.45;2.20;;;17.80;55.70;;;;;;5056094;28;20494;-74
2023/05/02 03:48:49;;;;;;;3.50;2.83;;;17.80;55.60;;;;;;5074086;28;20065;-74
2023/05/02 03:51:16;;;;;;;2.85;2.55;;;17.80;55.70;;;;;;5072730;28;20107;-74
2023/05/02 03:53:42;;;;;;;2.83;2.50;;;17.80;55.70;;;;;;5073886;28;20029;-75
2023/05/02 03:56:08;;;;;;;4.07;2.80;;;17.80;55.70;;;;;;5070418;28;20024;-74
2023/05/02 03:58:37;;;;;;;3.45;3.00;;;17.80;55.70;;;;;;5053977;28;20485;-74
2023/05/02 04:01:03;;;;;;;4.00;3.42;;;17.80;55.80;;;;;;5053796;28;20024;-73
2023/05/02 04:03:29;;;;;;;3.38;2.90;;;17.70;55.70;;;;;;5053803;28;20028;-73
2023/05/02 04:05:54;;;;;;;3.92;2.85;;;17.70;55.70;;;;;;5053771;28;20031;-74
2023/05/02 04:08:20;;;;;;;3.65;2.83;;;17.70;55.80;;;;;;5052435;28;20378;-73
2023/05/02 04:10:46;;;;;;;5.03;3.45;;;17.70;56.00;;;;;;5052316;28;20029;-74
2023/05/02 04:13:12;;;;;;;2.92;2.63;;;17.70;55.80;;;;;;5052004;28;20074;-73
2023/05/02 04:15:38;;;;;;;3.63;2.70;;;17.70;55.80;;;;;;5053089;28;20429;-75
2023/05/02 04:18:04;;;;;;;5.97;2.67;;;17.70;55.80;;;;;;5053791;28;20429;-74
2023/05/02 04:20:30;;;;;;;3.30;2.30;;;17.70;55.90;;;;;;5053385;28;20056;-74
2023/05/02 04:22:55;;;;;;;3.15;2.60;;;17.70;55.80;;;;;;5053420;28;20017;-73
2023/05/02 04:25:21;;;;;;;6.78;2.88;;;17.70;55.80;;;;;;5053142;28;20498;-74
2023/05/02 04:27:47;;;;;;;3.15;2.67;;;17.70;55.80;;;;;;5053203;28;20063;-74
2023/05/02 04:30:13;;;;;;;5.18;3.13;;;17.70;55.70;;;;;;5053421;28;20037;-73
2023/05/02 04:32:39;;;;;;;3.67;2.85;;;17.70;55.80;;;;;;5053419;28;20486;-73
2023/05/02 04:35:05;;;;;;;3.38;3.00;;;17.70;55.70;;;;;;5053437;28;20482;-74
2023/05/02 04:37:31;;;;;;;3.28;2.80;;;17.70;55.70;;;;;;5053306;28;20425;-74
2023/05/02 04:39:57;;;;;;;3.72;3.20;;;17.70;55.70;;;;;;5051948;28;20087;-75
2023/05/02 04:42:23;;;;;;;4.05;2.70;;;17.70;55.70;;;;;;5053427;28;20052;-74
2023/05/02 04:44:49;;;;;;;4.75;3.35;;;17.80;55.70;;;;;;5053752;28;20028;-75
2023/05/02 04:47:15;;;;;;;3.28;2.97;;;17.80;55.80;;;;;;5073290;28;20025;-74
2023/05/02 04:49:42;;;;;;;4.88;3.58;;;17.80;55.70;;;;;;5071908;28;20017;-75
2023/05/02 04:52:09;;;;;;;3.97;3.47;;;17.80;55.70;;;;;;5073235;28;20044;-74
2023/05/02 04:54:35;;;;;;;5.32;3.38;;;17.70;55.70;;;;;;5073162;28;20025;-74
2023/05/02 04:57:02;;;;;;;4.20;3.45;;;17.70;55.60;;;;;;5064166;28;20029;-74
2023/05/02 04:59:31;;;;;;;3.80;3.35;;;17.70;55.70;;;;;;5051531;28;20108;-75
2023/05/02 05:01:57;;;;;;;8.25;3.83;;;17.70;55.60;;;;;;5053075;28;20028;-74
2023/05/02 05:04:23;;;;;;;4.18;3.78;;;17.70;55.70;;;;;;5053021;28;20021;-74
2023/05/02 05:06:49;;;;;;;4.70;3.35;;;17.80;55.80;;;;;;5052971;28;20086;-74
2023/05/02 05:09:15;;;;;;;3.95;3.40;;;17.80;55.60;;;;;;5053175;28;20021;-75
2023/05/02 05:11:45;;;;;;;3.30;3.00;;;17.70;55.60;;;;;;5053165;28;20021;-75
2023/05/02 05:14:11;;;;;;;4.00;3.60;;;17.70;55.80;;;;;;5052938;28;20104;-75
2023/05/02 05:16:37;;;;;;;4.28;3.55;;;17.70;56.10;;;;;;5052811;28;20078;-74
2023/05/02 05:19:03;;;;;;;4.30;3.25;;;17.70;56.30;;;;;;5052664;28;20071;-73
2023/05/02 05:21:29;;;;;;;4.95;4.03;;;17.70;56.30;;;;;;5052642;28;20474;-75
2023/05/02 05:23:55;;;;;;;4.38;3.55;;;17.70;56.40;;;;;;5052555;28;20055;-75
2023/05/02 05:26:22;;;;;;;4.68;3.90;;;17.70;56.50;;;;;;5054380;28;20029;-72
2023/05/02 05:28:49;;;;;;;4.53;3.88;;;17.60;56.60;;;;;;5056743;28;20075;-75
2023/05/02 05:31:16;;;;;;;4.30;3.65;;;17.60;56.60;;;;;;5057006;28;20021;-75
2023/05/02 05:33:42;;;;;;;4.32;3.40;;;17.60;56.50;;;;;;5056254;28;20029;-75
2023/05/02 05:36:13;;;;;;;5.57;3.58;;;17.70;57.10;;;;;;5057368;28;20044;-75
2023/05/02 05:38:40;;;;;;;7.80;4.00;;;17.70;56.40;;;;;;5056088;28;20025;-75
2023/05/02 05:41:06;;;;;;;4.78;3.75;;;17.70;56.30;;;;;;5055804;28;20029;-75
2023/05/02 05:43:32;;;;;;;6.47;4.68;;;17.70;56.20;;;;;;5057784;28;20043;-74
2023/05/02 05:45:59;;;;;;;4.65;3.78;;;17.80;56.20;;;;;;5075742;28;20024;-74
2023/05/02 05:48:25;;;;;;;5.93;4.32;;;17.80;56.20;;;;;;5074770;28;20031;-74
2023/05/02 05:50:51;;;;;;;6.60;4.88;;;17.90;56.20;;;;;;5075856;28;20104;-74
2023/05/02 05:53:18;;;;;;;5.40;4.80;;;17.90;56.30;;;;;;5075888;28;20488;-74
2023/05/02 05:55:44;;;;;;;8.57;3.88;;;17.90;56.30;;;;;;5074699;28;20032;-74
2023/05/02 05:58:10;;;;;;;5.78;4.00;;;18.00;56.20;;;;;;5057989;28;20025;-74
2023/05/02 06:00:37;;;;;;;5.28;4.55;;;18.10;56.10;;;;;;5055797;28;20025;-75
2023/05/02 06:03:04;;;;;;;5.32;4.60;;;18.10;56.00;;;;;;5074329;28;20021;-75
2023/05/02 06:05:30;;;;;;;4.85;4.20;;;18.20;55.90;;;;;;5075863;28;20016;-74
2023/05/02 06:07:57;;;;;;;5.70;4.60;;;18.30;55.80;;;;;;5075255;28;20019;-74
2023/05/02 06:10:23;;;;;;;5.68;4.53;;;18.30;55.60;;;;;;5075711;28;20043;-75
2023/05/02 06:12:49;;;;;;;5.80;4.75;;;18.40;55.50;;;;;;5074096;28;20025;-75
2023/05/02 06:15:15;;;;;;;6.13;4.68;;;18.50;55.30;;;;;;5074807;28;20082;-75
2023/05/02 06:17:41;;;;;;;6.80;4.80;;;18.60;55.10;;;;;;5075071;28;20024;-75
2023/05/02 06:20:08;;;;;;;8.32;4.68;;;18.60;54.90;;;;;;5075253;28;20032;-74
2023/05/02 06:22:34;;;;;;;5.50;4.60;;;18.80;54.80;;;;;;5075460;28;20103;-75
2023/05/02 06:25:00;;;;;;;8.05;6.35;;;18.80;54.60;;;;;;5072934;28;20143;-74
2023/05/02 06:27:27;;;;;;;6.88;5.00;;;18.90;54.40;;;;;;5061866;28;20107;-75
2023/05/02 06:29:53;;;;;;;5.93;5.18;;;19.00;54.20;;;;;;5062231;28;20505;-75
2023/05/02 06:32:20;;;;;;;6.38;5.53;;;19.00;54.10;;;;;;5064874;28;20120;-74
2023/05/02 06:34:46;;;;;;;5.78;4.50;;;19.10;54.10;;;;;;5055098;28;20057;-75
2023/05/02 06:37:11;;;;;;;7.05;6.03;;;19.20;54.00;;;;;;5053849;28;20390;-74
2023/05/02 06:39:37;;;;;;;10.23;6.85;;;19.20;53.50;;;;;;5054796;28;20029;-74
2023/05/02 06:42:03;;;;;;;8.25;5.78;;;19.20;53.30;;;;;;5056022;28;20016;-75
2023/05/02 06:44:29;;;;;;;8.20;6.03;;;19.20;53.30;;;;;;5075138;28;20021;-75
2023/05/02 06:46:55;;;;;;;8.30;6.80;;;19.20;53.20;;;;;;5075292;28;20071;-74
2023/05/02 06:49:21;;;;;;;7.35;6.55;;;19.20;53.00;;;;;;5075144;28;20474;-74
2023/05/02 06:51:47;;;;;;;7.53;6.28;;;19.30;53.10;;;;;;5075155;28;20497;-74
2023/05/02 06:54:14;;;;;;;11.32;7.38;;;19.30;53.50;;;;;;5059796;28;20033;-74
2023/05/02 06:56:40;;;;;;;7.43;6.47;;;19.40;52.70;;;;;;5062224;28;20108;-74
2023/05/02 06:59:06;;;;;;;7.80;5.70;;;19.40;52.70;;;;;;5066434;28;20436;-74
2023/05/02 07:01:32;;;;;;;9.77;7.20;;;19.50;52.70;;;;;;5069211;28;20124;-75
2023/05/02 07:04:00;;;;;;;7.57;6.38;;;19.60;52.10;;;;;;5054717;28;20017;-74
2023/05/02 07:06:26;;;;;;;9.13;6.63;;;19.60;52.40;;;;;;5056492;28;20017;-75
2023/05/02 07:08:52;;;;;;;8.48;6.07;;;19.70;52.20;;;;;;5058813;28;20024;-74
2023/05/02 07:11:18;;;;;;;7.20;5.82;;;19.90;52.30;;;;;;5054839;28;20096;-74
2023/05/02 07:13:44;;;;;;;7.85;7.05;;;20.00;52.20;;;;;;5059792;28;20070;-74
2023/05/02 07:16:10;;;;;;;8.57;6.63;;;20.10;51.20;;;;;;5074587;28;20456;-74
2023/05/02 07:18:36;;;;;;;7.03;5.65;;;20.10;51.10;;;;;;5067990;28;20028;-75
2023/05/02 07:21:02;;;;;;;10.52;7.55;;;20.20;51.20;;;;;;5054402;28;20087;-74
2023/05/02 07:23:28;;;;;;;10.07;7.45;;;20.30;50.50;;;;;;5071653;28;20036;-75
2023/05/02 07:25:54;;;;;;;12.45;7.55;;;20.40;50.30;;;;;;5074159;28;20027;-74
2023/05/02 07:28:20;;;;;;;12.50;8.32;;;20.40;49.70;;;;;;5063832;28;20023;-73
2023/05/02 07:30:45;;;;;;;9.55;7.78;;;20.40;49.70;;;;;;5054151;28;20025;-74
2023/05/02 07:33:11;;;;;;;13.55;8.38;;;20.40;49.50;;;;;;5054216;28;20025;-73
2023/05/02 07:35:37;;;;;;;10.32;8.00;;;20.40;49.60;;;;;;5054064;28;20025;-74
2023/05/02 07:38:03;;;;;;;17.67;9.25;;;20.50;49.10;;;;;;5052424;28;20539;-73
2023/05/02 07:40:29;;;;;;;10.45;8.05;;;20.50;48.80;;;;;;5052727;28;20433;-74
2023/05/02 07:42:54;;;;;;;13.18;9.10;;;20.50;48.90;;;;;;5073411;28;20092;-75
2023/05/02 07:45:20;;;;;;;10.00;7.32;;;20.40;49.00;;;;;;5073783;28;20017;-74
2023/05/02 07:47:46;;;;;;;16.83;9.02;;;20.40;49.10;;;;;;5073584;28;20082;-74
2023/05/02 07:50:12;;;;;;;13.13;7.45;;;20.40;49.10;;;;;;5073984;28;20555;-74
2023/05/02 07:52:38;;;;;;;11.82;7.57;;;20.50;49.10;;;;;;5073814;28;20024;-74
2023/05/02 07:55:04;;;;;;;10.98;7.65;;;20.60;49.00;;;;;;5073722;28;20024;-73
2023/05/02 07:57:30;;;;;;;7.57;6.43;;;20.60;49.10;;;;;;5071148;28;20451;-73
2023/05/02 07:59:56;;;;;;;12.35;8.40;;;20.60;48.80;;;;;;5053677;28;20052;-73
2023/05/02 08:02:22;;;;;;;11.73;8.65;;;20.70;48.10;;;;;;5052291;28;20104;-73
2023/05/02 08:04:48;;;;;;;10.05;7.57;;;20.70;48.10;;;;;;5053732;28;20497;-73
2023/05/02 08:07:15;;;;;;;9.73;7.38;;;20.80;48.40;;;;;;5053377;28;20025;-74
2023/05/02 08:09:40;;;;;;;11.93;7.72;;;20.80;48.50;;;;;;5072297;28;20108;-73
2023/05/02 08:12:06;;;;;;;12.27;8.63;;;20.90;48.10;;;;;;5073373;28;20048;-74
2023/05/02 08:14:33;;;;;;;9.48;7.15;;;21.00;47.80;;;;;;5072112;28;20025;-73
2023/05/02 08:16:59;;;;;;;11.32;8.50;;;21.10;47.70;;;;;;5073434;28;20033;-74
2023/05/02 08:19:26;;;;;;;11.43;7.57;;;21.10;47.60;;;;;;5073269;28;20453;-73
2023/05/02 08:21:54;;;;;;;10.68;8.10;;;21.20;47.50;;;;;;5071508;28;20462;-73
2023/05/02 08:24:21;;;;;;;10.85;7.60;;;21.30;47.40;;;;;;5073180;28;20051;-74
2023/05/02 08:26:49;;;;;;;13.75;7.80;;;21.40;47.30;;;;;;5073035;28;20028;-74
2023/05/02 08:29:15;;;;;;;11.15;8.02;;;21.60;47.20;;;;;;5056189;28;20056;-73
2023/05/02 08:31:41;;;;;;;11.50;7.25;;;21.70;46.60;;;;;;5053348;28;20057;-74
2023/05/02 08:34:07;;;;;;;8.35;6.88;;;21.80;46.40;;;;;;5053162;28;20552;-74
2023/05/02 08:36:33;;;;;;;13.70;7.85;;;21.90;46.50;;;;;;5051658;28;20021;-74
2023/05/02 08:38:59;;;;;;;10.70;8.68;;;22.00;46.30;;;;;;5068837;28;20032;-74
2023/05/02 08:41:28;;;;;;;10.50;8.05;;;22.10;45.70;;;;;;5072431;28;20078;-73
2023/05/02 08:43:56;;;;;;;11.05;7.75;;;22.20;46.00;;;;;;5072230;28;20027;-73
2023/05/02 08:46:23;;;;;;;13.60;8.65;;;22.30;45.80;;;;;;5072353;28;20029;-73
2023/05/02 08:48:50;;;;;;;13.43;8.77;;;22.40;45.60;;;;;;5055720;28;20019;-74
2023/05/02 08:51:16;;;;;;;10.57;8.05;;;22.50;45.00;;;;;;5071947;28;20032;-74
2023/05/02 08:53:43;;;;;;;10.38;7.68;;;22.50;44.40;;;;;;5073347;28;20497;-74
2023/05/02 08:56:11;;;;;;;8.43;6.95;;;22.60;44.40;;;;;;5073475;28;20060;-74
2023/05/02 08:58:38;;;;;;;10.13;7.47;;;22.70;44.40;;;;;;5062055;28;20024;-73
2023/05/02 09:01:15;;;;;;;11.07;8.45;;;22.70;44.00;;;;;;5055197;28;20020;-74
2023/05/02 09:03:43;;;;;;;8.88;7.18;;;22.70;44.10;;;;;;5055307;28;20045;-74
2023/05/02 09:06:17;;;;;;;12.18;7.18;;;22.80;44.00;;;;;;5056828;28;20080;-73
2023/05/02 09:08:45;;;;;;;9.98;7.32;;;22.80;43.40;;;;;;5055573;28;20470;-74
2023/05/02 09:11:11;;;;;;;14.02;7.43;;;22.90;43.60;;;;;;5056727;28;20473;-74
2023/05/02 09:13:51;;;;;;;14.35;8.10;;;22.90;43.50;;;;;;5058273;28;20108;-73
2023/05/02 09:16:25;;;;;;;11.27;8.18;;;23.00;43.20;;;;;;5075680;28;20047;-75
2023/05/02 09:18:54;;;;;;;10.88;7.05;;;23.00;42.40;;;;;;5072426;28;20119;-75
2023/05/02 09:21:26;;;;;;;7.13;6.03;;;23.00;42.10;;;;;;5075316;28;20554;-74
2023/05/02 09:23:54;;;;;;;17.88;7.13;;;23.10;42.30;;;;;;5076414;28;20497;-75
2023/05/02 09:26:22;;;;;;;9.43;7.53;;;23.20;42.50;;;;;;5076672;28;20016;-74
2023/05/02 09:28:55;;;;;;;11.25;7.47;;;23.20;42.00;;;;;;5063872;28;20035;-74
2023/05/02 09:31:38;;;;;;;11.23;8.57;;;23.30;41.50;;;;;;5056903;28;20090;-74
2023/05/02 09:34:15;;;;;;;10.18;7.53;;;23.40;41.10;;;;;;5056522;28;20104;-74
2023/05/02 09:36:52;;;;;;;7.60;6.80;;;23.50;41.60;;;;;;5056371;28;20033;-74
2023/05/02 09:39:27;;;;;;;10.45;7.63;;;23.60;41.60;;;;;;5069534;28;20020;-74
2023/05/02 09:41:54;;;;;;;10.73;7.80;;;23.60;41.10;;;;;;5075416;28;20032;-74
2023/05/02 09:44:22;;;;;;;11.32;7.85;;;23.60;41.10;;;;;;5076231;28;20442;-74
2023/05/02 09:46:51;;;;;;;21.42;7.50;;;23.70;40.10;;;;;;5076232;28;20540;-73
2023/05/02 09:49:18;;;;;;;9.98;7.65;;;23.70;40.30;;;;;;5076098;28;20100;-74
2023/05/02 09:51:45;;;;;;;12.40;7.93;;;23.80;39.90;;;;;;5074856;28;20032;-74
2023/05/02 09:54:13;;;;;;;11.18;6.43;;;23.90;39.80;;;;;;5072581;28;20032;-74
2023/05/02 09:56:56;;;;;;;8.80;7.15;;;23.90;40.20;;;;;;5054627;28;20057;-74
2023/05/02 09:59:23;;;;;;;7.50;6.05;;;24.00;40.10;;;;;;5055807;28;20112;-73
2023/05/02 10:02:00;;;;;;;10.95;7.00;;;24.10;39.80;;;;;;5055531;28;20029;-74
2023/05/02 10:04:27;;;;;;;10.23;7.80;;;24.20;39.90;;;;;;5055919;28;20024;-73
2023/05/02 10:06:53;;;;;;;9.63;6.82;;;24.30;39.10;;;;;;5055697;28;20021;-74
2023/05/02 10:09:20;;;;;;;9.25;6.75;;;24.30;39.40;;;;;;5058603;28;20024;-74
2023/05/02 10:11:53;;;;;;;12.50;6.85;;;24.40;39.30;;;;;;5074377;28;20492;-73
2023/05/02 10:14:21;;;;;;;10.90;7.15;;;24.50;39.30;;;;;;5075918;28;20497;-74
2023/05/02 10:17:04;;;;;;;9.88;6.68;;;24.60;38.20;;;;;;5075736;28;20025;-74
2023/05/02 10:19:41;;;;;;;7.40;6.57;;;24.70;38.70;;;;;;5075220;28;20016;-74
2023/05/02 10:22:08;;;;;;;9.57;6.88;;;24.70;38.70;;;;;;5068846;28;20033;-74
2023/05/02 10:24:34;;;;;;;8.75;6.07;;;24.80;38.90;;;;;;5055364;28;20044;-74
2023/05/02 10:27:03;;;;;;;6.97;5.85;;;24.90;38.80;;;;;;5055482;28;20025;-74
2023/05/02 10:29:30;;;;;;;7.95;6.22;;;24.90;38.80;;;;;;5055643;28;20036;-75
2023/05/02 10:31:57;;;;;;;8.70;6.90;;;25.00;38.20;;;;;;5055427;28;20029;-74
2023/05/02 10:34:24;;;;;;;10.70;7.50;;;25.00;37.70;;;;;;5054979;28;20455;-75
2023/05/02 10:36:50;;;;;;;9.75;7.18;;;25.00;37.50;;;;;;5059369;28;20024;-74
2023/05/02 10:39:16;;;;;;;11.77;8.15;;;25.00;37.80;;;;;;5073477;28;20107;-75
2023/05/02 10:41:42;;;;;;;9.13;7.47;;;24.90;37.20;;;;;;5075066;28;20500;-75
2023/05/02 10:44:08;;;;;;;7.88;6.38;;;24.90;37.50;;;;;;5073855;28;20141;-74
2023/05/02 10:46:42;;;;;;;11.07;7.43;;;24.90;37.30;;;;;;5075164;28;20103;-75
2023/05/02 10:49:10;;;;;;;6.72;6.03;;;24.90;36.40;;;;;;5075258;28;20462;-74
2023/05/02 10:51:38;;;;;;;9.13;7.72;;;25.00;37.60;;;;;;5075196;28;20093;-73
2023/05/02 10:54:20;;;;;;;10.55;6.60;;;25.00;36.50;;;;;;5075380;28;20078;-74
2023/05/02 10:57:06;;;;;;;7.53;6.53;;;25.00;37.00;;;;;;5075069;28;20537;-74
2023/05/02 10:59:42;;;;;;;6.85;6.07;;;25.00;36.80;;;;;;5057519;28;20482;-74
2023/05/02 11:02:24;;;;;;;10.25;6.50;;;25.00;36.60;;;;;;5055129;28;20116;-74
2023/05/02 11:05:07;;;;;;;13.23;6.80;;;25.10;36.90;;;;;;5072543;28;20039;-74
2023/05/02 11:07:35;;;;;;;6.72;5.75;;;25.20;37.00;;;;;;5073745;28;20123;-75
2023/05/02 11:10:16;;;;;;;10.07;6.20;;;25.20;36.40;;;;;;5071756;28;20367;-74
2023/05/02 11:13:00;;;;;;;7.95;6.32;;;25.20;36.10;;;;;;5072459;28;20119;-74
2023/05/02 11:15:28;;;;;;;10.25;6.55;;;25.20;36.40;;;;;;5056987;28;20028;-74
2023/05/02 11:18:06;;;;;;;12.70;6.65;;;25.20;37.00;;;;;;5054593;28;20029;-74
2023/05/02 11:20:33;;;;;;;13.77;7.72;;;25.10;36.50;;;;;;5070822;28;20020;-74
2023/05/02 11:23:25;;;;;;;9.23;6.07;;;25.00;36.60;;;;;;5055517;28;20032;-74
2023/05/02 11:25:56;;;;;;;13.88;6.20;;;24.90;36.90;;;;;;5069739;28;20058;-74
2023/05/02 11:28:46;;;;;;;12.60;6.57;;;24.80;36.80;;;;;;5063256;28;20107;-74
2023/05/02 11:31:27;;;;;;;18.55;7.30;;;24.70;37.00;;;;;;5053939;28;20029;-74
2023/05/02 11:34:01;;;;;;;9.05;6.75;;;24.50;37.30;;;;;;5074319;28;20359;-74
2023/05/02 11:36:32;;;;;;;10.23;7.15;;;24.40;37.70;;;;;;5074173;28;20017;-74
2023/05/02 11:39:02;;;;;;;8.73;6.68;;;24.20;38.30;;;;;;5072728;28;20082;-75
2023/05/02 11:41:41;;;;;;;9.77;6.90;;;24.00;38.40;;;;;;5074204;28;20020;-74
2023/05/02 11:44:07;;;;;;;8.93;6.45;;;23.80;38.50;;;;;;5074090;28;20531;-75
2023/05/02 11:46:37;;;;;;;10.43;6.72;;;23.70;38.90;;;;;;5072534;28;20029;-75
2023/05/02 11:49:03;;;;;;;10.73;7.20;;;23.60;39.80;;;;;;5073718;28;20504;-76
2023/05/02 11:51:30;;;;;;;14.75;7.50;;;23.50;39.80;;;;;;5073774;28;20032;-76
2023/05/02 11:53:56;;;;;;;6.78;6.07;;;23.30;40.70;;;;;;5073886;28;20031;-76
2023/05/02 11:56:28;;;;;;;7.75;6.13;;;23.20;40.30;;;;;;5076506;28;20028;-76
2023/05/02 11:58:59;;;;;;;9.10;6.40;;;23.10;40.60;;;;;;5056428;28;20036;-75
2023/05/02 12:01:25;;;;;;;9.70;7.10;;;23.20;40.50;;;;;;5052449;28;20399;-76
2023/05/02 12:04:05;;;;;;;9.45;5.70;;;23.20;40.40;;;;;;5068624;28;20080;-76
2023/05/02 12:06:32;;;;;;;7.43;5.88;;;23.20;40.40;;;;;;5066005;28;20047;-75
2023/05/02 12:09:15;;;;;;;7.30;5.68;;;23.30;40.20;;;;;;5066033;28;20024;-75
2023/05/02 12:11:42;;;;;;;7.10;5.63;;;23.40;40.20;;;;;;5071195;28;20394;-73
2023/05/02 12:14:08;;;;;;;8.32;5.93;;;23.40;40.10;;;;;;5071901;28;20037;-73
2023/05/02 12:16:34;;;;;;;8.02;5.93;;;23.50;39.60;;;;;;5072941;28;20024;-74
2023/05/02 12:19:00;;;;;;;6.95;5.63;;;23.40;39.40;;;;;;5072678;28;20406;-73
2023/05/02 12:21:31;;;;;;;9.05;5.93;;;23.30;39.10;;;;;;5072792;28;20024;-73
2023/05/02 12:23:58;;;;;;;8.73;7.07;;;23.30;39.10;;;;;;5072574;28;20032;-73
2023/05/02 12:26:30;;;;;;;9.95;5.90;;;23.20;39.50;;;;;;5071948;28;20024;-73
2023/05/02 12:29:01;;;;;;;7.40;6.38;;;23.10;40.40;;;;;;5061357;28;20016;-73
2023/05/02 12:31:29;;;;;;;9.35;6.78;;;22.90;41.30;;;;;;5053431;28;20025;-74
2023/05/02 12:33:59;;;;;;;8.07;6.35;;;22.70;41.90;;;;;;5055314;28;20432;-73
2023/05/02 12:36:28;;;;;;;10.70;8.07;;;22.60;42.90;;;;;;5072890;28;20078;-73
2023/05/02 12:38:58;;;;;;;16.60;8.55;;;22.40;43.90;;;;;;5073465;28;20120;-73
2023/05/02 12:41:36;;;;;;;10.07;7.38;;;22.10;45.90;;;;;;5072840;28;20028;-73
2023/05/02 12:44:02;;;;;;;9.25;6.10;;;21.80;45.20;;;;;;5073112;28;20033;-73
2023/05/02 12:46:28;;;;;;;9.05;6.30;;;21.60;47.00;;;;;;5073057;28;20017;-74
2023/05/02 12:49:11;;;;;;;8.38;7.22;;;21.50;48.30;;;;;;5073115;28;20021;-73
2023/05/02 12:51:38;;;;;;;13.85;9.35;;;21.40;48.60;;;;;;5071917;28;20363;-73